createdAt,value
2018-09-17T00:00:24.412Z,1011
2018-09-17T00:01:26.796Z,1011
2018-09-17T00:02:28.899Z,1011
2018-09-17T00:03:30.994Z,1011
2018-09-17T00:04:33.091Z,1010.9
2018-09-17T00:05:35.589Z,1011
2018-09-17T00:06:37.683Z,1010.9
2018-09-17T00:07:39.777Z,1011
2018-09-17T00:08:41.892Z,1011
2018-09-17T00:09:44.652Z,1011
2018-09-17T00:10:46.752Z,1011
2018-09-17T00:11:48.850Z,1011
2018-09-17T00:12:50.960Z,1011
2018-09-17T00:13:53.044Z,1011
2018-09-17T00:14:55.457Z,1011
2018-09-17T00:15:57.572Z,1011
2018-09-17T00:16:59.661Z,1011
2018-09-17T00:18:01.772Z,1011
2018-09-17T00:19:04.247Z,1011
2018-09-17T00:20:06.344Z,1011
2018-09-17T00:21:08.440Z,1011
2018-09-17T00:22:10.567Z,1011
2018-09-17T00:23:12.640Z,1011
2018-09-17T00:24:14.745Z,1011
2018-09-17T00:25:16.850Z,1011
2018-09-17T00:26:18.931Z,1011
2018-09-17T00:27:21.045Z,1011
2018-09-17T00:28:23.527Z,1011
2018-09-17T00:29:25.918Z,1011
2018-09-17T00:30:28.723Z,1010.9
2018-09-17T00:31:30.828Z,1011
2018-09-17T00:32:32.922Z,1010.9
2018-09-17T00:33:35.313Z,1010.9
2018-09-17T00:34:37.412Z,1010.9
2018-09-17T00:35:39.808Z,1010.9
2018-09-17T00:36:42.297Z,1010.9
2018-09-17T00:37:44.783Z,1010.9
2018-09-17T00:38:46.890Z,1010.9
2018-09-17T00:39:48.987Z,1010.9
2018-09-17T00:40:51.080Z,1011
2018-09-17T00:41:53.484Z,1010.9
2018-09-17T00:42:55.569Z,1010.9
2018-09-17T00:43:57.672Z,1010.9
2018-09-17T00:44:59.775Z,1010.9
2018-09-17T00:46:01.879Z,1010.9
2018-09-17T00:47:03.962Z,1010.9
2018-09-17T00:48:06.654Z,1010.9
2018-09-17T00:49:08.748Z,1010.9
2018-09-17T00:50:10.835Z,1010.9
2018-09-17T00:51:12.951Z,1010.8
2018-09-17T00:52:15.038Z,1010.9
2018-09-17T00:53:17.429Z,1010.9
2018-09-17T00:54:20.103Z,1010.9
2018-09-17T00:55:22.601Z,1011
2018-09-17T00:56:24.693Z,1010.9
2018-09-17T00:57:26.800Z,1011
2018-09-17T00:58:28.903Z,1011
2018-09-17T00:59:30.987Z,1010.9
2018-09-17T01:00:33.413Z,1011
2018-09-17T01:01:35.515Z,1011
2018-09-17T01:02:37.609Z,1011
2018-09-17T01:03:39.708Z,1011
2018-09-17T01:04:41.812Z,1011
2018-09-17T01:05:43.907Z,1011
2018-09-17T01:06:46.013Z,1010.9
2018-09-17T01:07:48.109Z,1010.9
2018-09-17T01:08:50.198Z,1010.9
2018-09-17T01:09:52.586Z,1010.9
2018-09-17T01:10:55.095Z,1010.9
2018-09-17T01:11:57.471Z,1010.8
2018-09-17T01:12:59.583Z,1010.8
2018-09-17T01:14:01.971Z,1010.8
2018-09-17T01:15:04.073Z,1010.8
2018-09-17T01:16:06.443Z,1010.8
2018-09-17T01:17:08.936Z,1010.8
2018-09-17T01:18:11.321Z,1010.8
2018-09-17T01:19:13.428Z,1010.8
2018-09-17T01:20:15.517Z,1010.9
2018-09-17T01:21:17.622Z,1010.9
2018-09-17T01:22:20.005Z,1011
2018-09-17T01:23:22.097Z,1010.9
2018-09-17T01:24:24.211Z,1010.9
2018-09-17T01:25:26.294Z,1011
2018-09-17T01:26:28.687Z,1010.9
2018-09-17T01:27:30.782Z,1010.9
2018-09-17T01:28:33.178Z,1010.8
2018-09-17T01:29:35.658Z,1010.9
2018-09-17T01:30:37.809Z,1010.8
2018-09-17T01:31:40.285Z,1010.9
2018-09-17T01:32:42.362Z,1010.8
2018-09-17T01:33:44.856Z,1010.8
2018-09-17T01:34:46.950Z,1010.8
2018-09-17T01:35:49.037Z,1010.9
2018-09-17T01:36:51.134Z,1010.8
2018-09-17T01:37:53.531Z,1010.8
2018-09-17T01:38:55.964Z,1010.8
2018-09-17T01:39:58.309Z,1010.7
2018-09-17T01:41:00.698Z,1010.7
2018-09-17T01:42:02.797Z,1010.7
2018-09-17T01:43:04.906Z,1010.7
2018-09-17T01:44:07.017Z,1010.7
2018-09-17T01:45:09.099Z,1010.7
2018-09-17T01:46:11.255Z,1010.7
2018-09-17T01:47:13.716Z,1010.7
2018-09-17T01:48:15.802Z,1010.7
2018-09-17T01:49:17.914Z,1010.7
2018-09-17T01:50:20.005Z,1010.7
2018-09-17T01:51:22.101Z,1010.7
2018-09-17T01:52:24.912Z,1010.7
2018-09-17T01:53:27.018Z,1010.7
2018-09-17T01:54:29.108Z,1010.7
2018-09-17T01:55:31.207Z,1010.7
2018-09-17T01:56:33.312Z,1010.7
2018-09-17T01:57:35.403Z,1010.7
2018-09-17T01:58:38.087Z,1010.7
2018-09-17T01:59:40.787Z,1010.7
2018-09-17T02:00:42.886Z,1010.7
2018-09-17T02:01:44.971Z,1010.6
2018-09-17T02:02:47.078Z,1010.7
2018-09-17T02:03:49.458Z,1010.7
2018-09-17T02:04:51.863Z,1010.6
2018-09-17T02:05:54.283Z,1010.6
2018-09-17T02:06:56.368Z,1010.6
2018-09-17T02:07:58.468Z,1010.6
2018-09-17T02:09:01.436Z,1010.6
2018-09-17T02:10:03.557Z,1010.6
2018-09-17T02:11:06.492Z,1010.6
2018-09-17T02:12:08.592Z,1010.6
2018-09-17T02:13:10.690Z,1010.6
2018-09-17T02:14:12.796Z,1010.6
2018-09-17T02:15:14.910Z,1010.6
2018-09-17T02:16:17.001Z,1010.6
2018-09-17T02:17:19.092Z,1010.6
2018-09-17T02:18:21.488Z,1010.6
2018-09-17T02:19:23.882Z,1010.5
2018-09-17T02:20:25.981Z,1010.6
2018-09-17T02:21:28.081Z,1010.6
2018-09-17T02:22:30.173Z,1010.6
2018-09-17T02:23:32.559Z,1010.6
2018-09-17T02:24:34.656Z,1010.7
2018-09-17T02:25:36.759Z,1010.7
2018-09-17T02:26:38.849Z,1010.7
2018-09-17T02:27:40.951Z,1010.7
2018-09-17T02:28:43.049Z,1010.7
2018-09-17T02:29:45.436Z,1010.8
2018-09-17T02:30:47.821Z,1010.8
2018-09-17T02:31:49.933Z,1010.8
2018-09-17T02:32:52.707Z,1010.8
2018-09-17T02:33:54.811Z,1010.9
2018-09-17T02:34:56.898Z,1010.9
2018-09-17T02:35:59.004Z,1011
2018-09-17T02:37:01.097Z,1010.9
2018-09-17T02:38:03.768Z,1010.9
2018-09-17T02:39:06.193Z,1011
2018-09-17T02:40:08.285Z,1011
2018-09-17T02:41:10.669Z,1010.9
2018-09-17T02:42:12.772Z,1010.9
2018-09-17T02:43:15.484Z,1010.9
2018-09-17T02:44:17.862Z,1010.9
2018-09-17T02:45:19.968Z,1010.9
2018-09-17T02:46:22.059Z,1010.9
2018-09-17T02:47:24.554Z,1010.8
2018-09-17T02:48:26.663Z,1010.8
2018-09-17T02:49:29.370Z,1010.8
2018-09-17T02:50:31.965Z,1010.7
2018-09-17T02:51:34.671Z,1010.7
2018-09-17T02:52:36.759Z,1010.6
2018-09-17T02:53:39.333Z,1010.7
2018-09-17T02:54:41.754Z,1010.6
2018-09-17T02:55:43.840Z,1010.5
2018-09-17T02:56:45.943Z,1010.6
2018-09-17T02:57:49.419Z,1010.5
2018-09-17T02:58:51.927Z,1010.6
2018-09-17T02:59:54.017Z,1010.6
2018-09-17T03:00:56.414Z,1010.6
2018-09-17T03:01:58.509Z,1010.6
2018-09-17T03:03:00.895Z,1010.6
2018-09-17T03:04:03.008Z,1010.6
2018-09-17T03:05:05.793Z,1010.6
2018-09-17T03:06:07.895Z,1010.6
2018-09-17T03:07:10.851Z,1010.5
2018-09-17T03:08:13.353Z,1010.6
2018-09-17T03:09:15.449Z,1010.6
2018-09-17T03:10:17.919Z,1010.6
2018-09-17T03:11:20.014Z,1010.6
2018-09-17T03:12:22.421Z,1010.7
2018-09-17T03:13:24.510Z,1010.6
2018-09-17T03:14:26.893Z,1010.7
2018-09-17T03:15:28.999Z,1010.6
2018-09-17T03:16:31.096Z,1010.6
2018-09-17T03:17:33.180Z,1010.6
2018-09-17T03:18:35.576Z,1010.5
2018-09-17T03:19:37.664Z,1010.6
2018-09-17T03:20:39.761Z,1010.7
2018-09-17T03:21:42.269Z,1010.6
2018-09-17T03:22:44.367Z,1010.7
2018-09-17T03:23:46.462Z,1010.8
2018-09-17T03:24:48.869Z,1010.8
2018-09-17T03:25:50.952Z,1010.8
2018-09-17T03:26:53.050Z,1010.8
2018-09-17T03:27:55.540Z,1010.8
2018-09-17T03:28:58.009Z,1010.8
2018-09-17T03:30:00.111Z,1010.8
2018-09-17T03:31:02.808Z,1010.7
2018-09-17T03:32:05.907Z,1010.7
2018-09-17T03:33:08.006Z,1010.7
2018-09-17T03:34:10.404Z,1010.7
2018-09-17T03:35:12.494Z,1010.7
2018-09-17T03:36:14.580Z,1010.7
2018-09-17T03:37:16.689Z,1010.7
2018-09-17T03:38:18.773Z,1010.7
2018-09-17T03:39:21.159Z,1010.7
2018-09-17T03:40:23.831Z,1010.6
2018-09-17T03:41:25.936Z,1010.6
2018-09-17T03:42:28.023Z,1010.6
2018-09-17T03:43:30.519Z,1010.6
2018-09-17T03:44:32.940Z,1010.6
2018-09-17T03:45:35.021Z,1010.6
2018-09-17T03:46:37.616Z,1010.6
2018-09-17T03:47:39.614Z,1010.6
2018-09-17T03:48:41.759Z,1010.6
2018-09-17T03:49:44.242Z,1010.6
2018-09-17T03:50:46.621Z,1010.7
2018-09-17T03:51:49.015Z,1010.7
2018-09-17T03:52:51.102Z,1010.7
2018-09-17T03:53:53.504Z,1010.8
2018-09-17T03:54:55.604Z,1010.8
2018-09-17T03:55:57.705Z,1010.9
2018-09-17T03:56:59.791Z,1010.9
2018-09-17T03:58:01.964Z,1010.9
2018-09-17T03:59:03.998Z,1010.9
2018-09-17T04:00:06.087Z,1010.9
2018-09-17T04:01:08.189Z,1010.8
2018-09-17T04:02:10.271Z,1010.9
2018-09-17T04:03:12.373Z,1010.8
2018-09-17T04:04:14.472Z,1010.9
2018-09-17T04:05:16.579Z,1011
2018-09-17T04:06:18.663Z,1010.9
2018-09-17T04:07:20.773Z,1010.9
2018-09-17T04:08:23.279Z,1011
2018-09-17T04:09:25.653Z,1011
2018-09-17T04:10:27.793Z,1011
2018-09-17T04:11:30.438Z,1011
2018-09-17T04:12:32.531Z,1011
2018-09-17T04:13:34.629Z,1011
2018-09-17T04:14:37.136Z,1011
2018-09-17T04:15:39.223Z,1011
2018-09-17T04:16:41.319Z,1011
2018-09-17T04:17:43.420Z,1011
2018-09-17T04:18:45.500Z,1011
2018-09-17T04:19:47.601Z,1011
2018-09-17T04:20:49.699Z,1011
2018-09-17T04:21:51.788Z,1011
2018-09-17T04:22:54.563Z,1011
2018-09-17T04:23:56.667Z,1011.1
2018-09-17T04:24:58.756Z,1011.1
2018-09-17T04:26:01.474Z,1011.1
2018-09-17T04:27:03.868Z,1011.1
2018-09-17T04:28:05.950Z,1011.1
2018-09-17T04:29:08.097Z,1011
2018-09-17T04:30:10.201Z,1011.1
2018-09-17T04:31:12.281Z,1011.1
2018-09-17T04:32:14.671Z,1011.2
2018-09-17T04:33:16.772Z,1011.1
2018-09-17T04:34:18.854Z,1011.1
2018-09-17T04:35:21.254Z,1011.1
2018-09-17T04:36:23.341Z,1011.2
2018-09-17T04:37:25.442Z,1011.1
2018-09-17T04:38:27.926Z,1011.2
2018-09-17T04:39:30.036Z,1011.2
2018-09-17T04:40:32.121Z,1011.1
2018-09-17T04:41:34.218Z,1011.2
2018-09-17T04:42:36.317Z,1011.2
2018-09-17T04:43:38.403Z,1011.2
2018-09-17T04:44:40.509Z,1011.2
2018-09-17T04:45:42.611Z,1011.2
2018-09-17T04:46:45.005Z,1011.2
2018-09-17T04:47:47.091Z,1011.1
2018-09-17T04:48:49.216Z,1011.2
2018-09-17T04:49:51.581Z,1011.2
2018-09-17T04:50:53.671Z,1011.2
2018-09-17T04:51:55.778Z,1011.2
2018-09-17T04:52:57.865Z,1011.2
2018-09-17T04:53:59.954Z,1011.2
2018-09-17T04:55:02.742Z,1011.2
2018-09-17T04:56:05.144Z,1011.2
2018-09-17T04:57:07.228Z,1011.2
2018-09-17T04:58:09.612Z,1011.2
2018-09-17T04:59:11.701Z,1011.2
2018-09-17T05:00:13.801Z,1011.2
2018-09-17T05:01:16.293Z,1011.2
2018-09-17T05:02:18.387Z,1011.2
2018-09-17T05:03:20.483Z,1011.2
2018-09-17T05:04:22.566Z,1011.2
2018-09-17T05:05:24.665Z,1011.2
2018-09-17T05:06:27.053Z,1011.3
2018-09-17T05:07:29.136Z,1011.3
2018-09-17T05:08:31.248Z,1011.3
2018-09-17T05:09:33.337Z,1011.2
2018-09-17T05:10:35.818Z,1011.2
2018-09-17T05:11:38.207Z,1011.3
2018-09-17T05:12:40.318Z,1011.3
2018-09-17T05:13:42.398Z,1011.2
2018-09-17T05:14:44.496Z,1011.2
2018-09-17T05:15:46.597Z,1011.2
2018-09-17T05:16:48.675Z,1011.2
2018-09-17T05:17:50.776Z,1011.2
2018-09-17T05:18:52.868Z,1011.2
2018-09-17T05:19:54.967Z,1011.1
2018-09-17T05:20:57.049Z,1011.1
2018-09-17T05:21:59.149Z,1011.1
2018-09-17T05:23:01.566Z,1011
2018-09-17T05:24:03.910Z,1011
2018-09-17T05:25:06.304Z,1011
2018-09-17T05:26:08.774Z,1011.1
2018-09-17T05:27:10.866Z,1011.1
2018-09-17T05:28:12.966Z,1011.1
2018-09-17T05:29:15.059Z,1011.1
2018-09-17T05:30:17.142Z,1011.1
2018-09-17T05:31:19.648Z,1011.1
2018-09-17T05:32:21.735Z,1011.1
2018-09-17T05:33:24.123Z,1011.1
2018-09-17T05:34:26.524Z,1011
2018-09-17T05:35:28.615Z,1011.1
2018-09-17T05:36:30.701Z,1011
2018-09-17T05:37:32.805Z,1011
2018-09-17T05:38:35.192Z,1011
2018-09-17T05:39:37.280Z,1011.1
2018-09-17T05:40:39.370Z,1011.1
2018-09-17T05:41:41.796Z,1011.1
2018-09-17T05:42:43.884Z,1011.1
2018-09-17T05:43:45.979Z,1011.1
2018-09-17T05:44:48.065Z,1011.1
2018-09-17T05:45:50.175Z,1011.1
2018-09-17T05:46:52.264Z,1011.1
2018-09-17T05:47:54.358Z,1011.1
2018-09-17T05:48:56.457Z,1011.1
2018-09-17T05:49:58.538Z,1011.1
2018-09-17T05:51:00.933Z,1011.1
2018-09-17T05:52:03.345Z,1011.1
2018-09-17T05:53:05.751Z,1011.1
2018-09-17T05:54:07.842Z,1011.1
2018-09-17T05:55:10.233Z,1011.1
2018-09-17T05:56:12.628Z,1011.2
2018-09-17T05:57:14.720Z,1011.2
2018-09-17T05:58:16.830Z,1011.2
2018-09-17T05:59:18.919Z,1011.2
2018-09-17T06:00:21.013Z,1011.2
2018-09-17T06:01:23.117Z,1011.2
2018-09-17T06:02:25.212Z,1011.2
2018-09-17T06:03:27.592Z,1011.2
2018-09-17T06:04:29.700Z,1011.2
2018-09-17T06:05:32.508Z,1011.2
2018-09-17T06:06:34.573Z,1011.1
2018-09-17T06:07:36.696Z,1011.2
2018-09-17T06:08:38.796Z,1011.2
2018-09-17T06:09:40.896Z,1011.2
2018-09-17T06:10:43.002Z,1011.2
2018-09-17T06:11:45.114Z,1011.2
2018-09-17T06:12:47.188Z,1011.2
2018-09-17T06:13:49.297Z,1011.2
2018-09-17T06:14:51.765Z,1011.2
2018-09-17T06:15:53.861Z,1011.2
2018-09-17T06:16:55.958Z,1011.2
2018-09-17T06:17:58.136Z,1011.2
2018-09-17T06:19:00.233Z,1011.2
2018-09-17T06:20:02.322Z,1011.2
2018-09-17T06:21:04.421Z,1011.2
2018-09-17T06:22:06.532Z,1011.2
2018-09-17T06:23:08.978Z,1011.2
2018-09-17T06:24:11.713Z,1011.2
2018-09-17T06:25:13.810Z,1011.2
2018-09-17T06:26:15.915Z,1011.2
2018-09-17T06:27:17.998Z,1011.2
2018-09-17T06:28:20.391Z,1011.2
2018-09-17T06:29:23.076Z,1011.2
2018-09-17T06:30:25.168Z,1011.2
2018-09-17T06:31:27.283Z,1011.2
2018-09-17T06:32:29.778Z,1011.3
2018-09-17T06:33:31.870Z,1011.3
2018-09-17T06:34:33.980Z,1011.3
2018-09-17T06:35:36.363Z,1011.3
2018-09-17T06:36:38.456Z,1011.4
2018-09-17T06:37:40.654Z,1011.3
2018-09-17T06:38:42.649Z,1011.3
2018-09-17T06:39:44.741Z,1011.3
2018-09-17T06:40:46.853Z,1011.3
2018-09-17T06:41:49.339Z,1011.3
2018-09-17T06:42:51.426Z,1011.3
2018-09-17T06:43:53.544Z,1011.4
2018-09-17T06:44:56.015Z,1011.3
2018-09-17T06:45:58.036Z,1011.3
2018-09-17T06:47:00.154Z,1011.4
2018-09-17T06:48:02.240Z,1011.4
2018-09-17T06:49:04.942Z,1011.4
2018-09-17T06:50:07.045Z,1011.4
2018-09-17T06:51:09.150Z,1011.4
2018-09-17T06:52:11.242Z,1011.4
2018-09-17T06:53:13.346Z,1011.4
2018-09-17T06:54:15.444Z,1011.4
2018-09-17T06:55:18.105Z,1011.3
2018-09-17T06:56:20.218Z,1011.4
2018-09-17T06:57:22.696Z,1011.3
2018-09-17T06:58:24.792Z,1011.3
2018-09-17T06:59:26.885Z,1011.3
2018-09-17T07:00:28.996Z,1011.3
2018-09-17T07:01:31.402Z,1011.3
2018-09-17T07:02:33.515Z,1011.3
2018-09-17T07:03:35.620Z,1011.3
2018-09-17T07:04:37.710Z,1011.3
2018-09-17T07:05:39.822Z,1011.3
2018-09-17T07:06:42.222Z,1011.3
2018-09-17T07:07:44.307Z,1011.3
2018-09-17T07:08:46.412Z,1011.2
2018-09-17T07:09:48.807Z,1011.2
2018-09-17T07:10:51.189Z,1011.2
2018-09-17T07:11:53.299Z,1011.1
2018-09-17T07:12:55.400Z,1011.1
2018-09-17T07:13:57.511Z,1011.1
2018-09-17T07:14:59.608Z,1011.1
2018-09-17T07:16:01.797Z,1011.1
2018-09-17T07:17:04.252Z,1011.1
2018-09-17T07:18:06.803Z,1011.1
2018-09-17T07:19:09.288Z,1011.1
2018-09-17T07:20:11.381Z,1011.1
2018-09-17T07:21:13.491Z,1011.1
2018-09-17T07:22:15.593Z,1011.1
2018-09-17T07:23:17.984Z,1011.1
2018-09-17T07:24:20.077Z,1011.1
2018-09-17T07:25:22.247Z,1011.2
2018-09-17T07:26:24.676Z,1011.2
2018-09-17T07:27:26.781Z,1011.2
2018-09-17T07:28:29.190Z,1011.3
2018-09-17T07:29:31.275Z,1011.3
2018-09-17T07:30:34.096Z,1011.2
2018-09-17T07:31:36.200Z,1011.3
2018-09-17T07:32:38.319Z,1011.3
2018-09-17T07:33:40.736Z,1011.3
2018-09-17T07:34:42.842Z,1011.3
2018-09-17T07:35:45.271Z,1011.3
2018-09-17T07:36:47.382Z,1011.3
2018-09-17T07:37:49.474Z,1011.4
2018-09-17T07:38:51.598Z,1011.3
2018-09-17T07:39:53.703Z,1011.4
2018-09-17T07:40:55.851Z,1011.4
2018-09-17T07:41:58.611Z,1011.4
2018-09-17T07:43:01.120Z,1011.4
2018-09-17T07:44:03.524Z,1011.5
2018-09-17T07:45:05.631Z,1011.5
2018-09-17T07:46:07.736Z,1011.5
2018-09-17T07:47:09.828Z,1011.5
2018-09-17T07:48:11.935Z,1011.4
2018-09-17T07:49:14.344Z,1011.5
2018-09-17T07:50:16.436Z,1011.5
2018-09-17T07:51:18.547Z,1011.5
2018-09-17T07:52:20.662Z,1011.5
2018-09-17T07:53:22.751Z,1011.5
2018-09-17T07:54:24.875Z,1011.5
2018-09-17T07:55:26.971Z,1011.5
2018-09-17T07:56:29.075Z,1011.4
2018-09-17T07:57:31.754Z,1011.5
2018-09-17T07:58:33.873Z,1011.5
2018-09-17T07:59:36.265Z,1011.5
2018-09-17T08:00:38.649Z,1011.5
2018-09-17T08:01:40.759Z,1011.5
2018-09-17T08:02:42.850Z,1011.5
2018-09-17T08:03:44.966Z,1011.5
2018-09-17T08:04:47.076Z,1011.5
2018-09-17T08:05:49.185Z,1011.5
2018-09-17T08:06:51.671Z,1011.4
2018-09-17T08:07:53.779Z,1011.5
2018-09-17T08:08:56.175Z,1011.4
2018-09-17T08:09:58.273Z,1011.4
2018-09-17T08:11:00.685Z,1011.5
2018-09-17T08:12:02.786Z,1011.4
2018-09-17T08:13:04.892Z,1011.4
2018-09-17T08:14:07.794Z,1011.4
2018-09-17T08:15:09.898Z,1011.4
2018-09-17T08:16:11.993Z,1011.3
2018-09-17T08:17:14.421Z,1011.4
2018-09-17T08:18:16.514Z,1011.3
2018-09-17T08:19:19.013Z,1011.4
2018-09-17T08:20:21.447Z,1011.3
2018-09-17T08:21:23.549Z,1011.3
2018-09-17T08:22:25.947Z,1011.3
2018-09-17T08:23:28.065Z,1011.3
2018-09-17T08:24:30.459Z,1011.3
2018-09-17T08:25:33.097Z,1011.2
2018-09-17T08:26:35.154Z,1011.2
2018-09-17T08:27:37.246Z,1011.3
2018-09-17T08:28:39.361Z,1011.3
2018-09-17T08:29:41.468Z,1011.2
2018-09-17T08:30:43.579Z,1011.2
2018-09-17T08:31:45.670Z,1011.3
2018-09-17T08:32:47.780Z,1011.3
2018-09-17T08:33:49.889Z,1011.3
2018-09-17T08:34:51.984Z,1011.3
2018-09-17T08:35:54.497Z,1011.3
2018-09-17T08:36:56.596Z,1011.4
2018-09-17T08:37:58.708Z,1011.3
2018-09-17T08:39:00.811Z,1011.3
2018-09-17T08:40:02.930Z,1011.4
2018-09-17T08:41:05.414Z,1011.3
2018-09-17T08:42:07.527Z,1011.4
2018-09-17T08:43:09.645Z,1011.4
2018-09-17T08:44:12.034Z,1011.4
2018-09-17T08:45:14.540Z,1011.4
2018-09-17T08:46:16.645Z,1011.4
2018-09-17T08:47:19.152Z,1011.4
2018-09-17T08:48:21.257Z,1011.5
2018-09-17T08:49:23.371Z,1011.4
2018-09-17T08:50:25.873Z,1011.4
2018-09-17T08:51:27.977Z,1011.4
2018-09-17T08:52:30.085Z,1011.4
2018-09-17T08:53:32.208Z,1011.4
2018-09-17T08:54:34.314Z,1011.4
2018-09-17T08:55:36.421Z,1011.5
2018-09-17T08:56:38.545Z,1011.5
2018-09-17T08:57:41.257Z,1011.5
2018-09-17T08:58:43.360Z,1011.4
2018-09-17T08:59:45.483Z,1011.5
2018-09-17T09:00:47.876Z,1011.4
2018-09-17T09:01:49.990Z,1011.3
2018-09-17T09:02:52.103Z,1011.4
2018-09-17T09:03:54.260Z,1011.4
2018-09-17T09:04:56.333Z,1011.4
2018-09-17T09:05:58.448Z,1011.4
2018-09-17T09:07:00.560Z,1011.5
2018-09-17T09:08:02.663Z,1011.5
2018-09-17T09:09:04.790Z,1011.5
2018-09-17T09:10:06.884Z,1011.5
2018-09-17T09:11:09.303Z,1011.5
2018-09-17T09:12:11.459Z,1011.5
2018-09-17T09:13:13.545Z,1011.5
2018-09-17T09:14:15.655Z,1011.5
2018-09-17T09:15:17.771Z,1011.5
2018-09-17T09:16:20.570Z,1011.5
2018-09-17T09:17:23.003Z,1011.5
2018-09-17T09:18:25.079Z,1011.5
2018-09-17T09:19:27.215Z,1011.4
2018-09-17T09:20:30.016Z,1011.4
2018-09-17T09:21:32.130Z,1011.5
2018-09-17T09:22:34.642Z,1011.5
2018-09-17T09:23:36.754Z,1011.4
2018-09-17T09:24:38.874Z,1011.5
2018-09-17T09:25:40.988Z,1011.4
2018-09-17T09:26:43.091Z,1011.4
2018-09-17T09:27:45.203Z,1011.4
2018-09-17T09:28:47.622Z,1011.4
2018-09-17T09:29:50.017Z,1011.4
2018-09-17T09:30:52.190Z,1011.4
2018-09-17T09:31:54.660Z,1011.3
2018-09-17T09:32:56.763Z,1011.3
2018-09-17T09:33:59.670Z,1011.3
2018-09-17T09:35:01.788Z,1011.3
2018-09-17T09:36:03.900Z,1011.3
2018-09-17T09:37:06.005Z,1011.3
2018-09-17T09:38:08.148Z,1011.3
2018-09-17T09:39:10.655Z,1011.3
2018-09-17T09:40:12.769Z,1011.2
2018-09-17T09:41:14.894Z,1011.2
2018-09-17T09:42:16.999Z,1011.2
2018-09-17T09:43:19.409Z,1011.2
2018-09-17T09:44:21.525Z,1011.3
2018-09-17T09:45:24.033Z,1011.3
2018-09-17T09:46:26.179Z,1011.3
2018-09-17T09:47:28.675Z,1011.2
2018-09-17T09:48:30.797Z,1011.3
2018-09-17T09:49:33.223Z,1011.3
2018-09-17T09:50:35.349Z,1011.4
2018-09-17T09:51:37.745Z,1011.3
2018-09-17T09:52:40.187Z,1011.4
2018-09-17T09:53:42.303Z,1011.3
2018-09-17T09:54:44.810Z,1011.3
2018-09-17T09:55:46.921Z,1011.3
2018-09-17T09:56:49.334Z,1011.3
2018-09-17T09:57:51.440Z,1011.3
2018-09-17T09:58:53.848Z,1011.3
2018-09-17T09:59:55.977Z,1011.3
2018-09-17T10:00:58.094Z,1011.3
2018-09-17T10:02:00.198Z,1011.3
2018-09-17T10:03:02.325Z,1011.3
2018-09-17T10:04:04.432Z,1011.3
2018-09-17T10:05:06.544Z,1011.3
2018-09-17T10:06:08.943Z,1011.3
2018-09-17T10:07:11.075Z,1011.3
2018-09-17T10:08:13.185Z,1011.3
2018-09-17T10:09:15.295Z,1011.3
2018-09-17T10:10:17.405Z,1011.3
2018-09-17T10:11:19.527Z,1011.3
2018-09-17T10:12:21.634Z,1011.2
2018-09-17T10:13:24.140Z,1011.2
2018-09-17T10:14:26.264Z,1011.2
2018-09-17T10:15:28.366Z,1011.1
2018-09-17T10:16:30.490Z,1011.1
2018-09-17T10:17:32.605Z,1011.1
2018-09-17T10:18:34.727Z,1011.1
2018-09-17T10:19:36.829Z,1011.1
2018-09-17T10:20:38.953Z,1011.1
2018-09-17T10:21:41.064Z,1011
2018-09-17T10:22:43.173Z,1011.1
2018-09-17T10:23:45.299Z,1011
2018-09-17T10:24:47.399Z,1011
2018-09-17T10:25:49.511Z,1011
2018-09-17T10:26:51.644Z,1011
2018-09-17T10:27:53.752Z,1011
2018-09-17T10:28:56.248Z,1011
2018-09-17T10:29:58.411Z,1011
2018-09-17T10:31:00.868Z,1011
2018-09-17T10:32:02.984Z,1011
2018-09-17T10:33:05.113Z,1011
2018-09-17T10:34:07.225Z,1011
2018-09-17T10:35:09.335Z,1011
2018-09-17T10:36:11.468Z,1011
2018-09-17T10:37:13.587Z,1011
2018-09-17T10:38:15.708Z,1011
2018-09-17T10:39:17.831Z,1011
2018-09-17T10:40:19.934Z,1011
2018-09-17T10:41:22.057Z,1011
2018-09-17T10:42:24.178Z,1011
2018-09-17T10:43:26.700Z,1011
2018-09-17T10:44:28.809Z,1011
2018-09-17T10:45:30.916Z,1011
2018-09-17T10:46:33.031Z,1011
2018-09-17T10:47:35.159Z,1010.9
2018-09-17T10:48:37.264Z,1010.9
2018-09-17T10:49:39.393Z,1010.9
2018-09-17T10:50:41.513Z,1010.9
2018-09-17T10:51:43.952Z,1010.9
2018-09-17T10:52:46.050Z,1010.9
2018-09-17T10:53:48.172Z,1010.9
2018-09-17T10:54:50.575Z,1010.9
2018-09-17T10:55:52.689Z,1010.9
2018-09-17T10:56:54.818Z,1010.9
2018-09-17T10:57:56.926Z,1010.9
2018-09-17T10:58:59.046Z,1010.9
2018-09-17T11:00:01.175Z,1010.9
2018-09-17T11:01:03.300Z,1010.9
2018-09-17T11:02:05.411Z,1010.9
2018-09-17T11:03:07.916Z,1011
2018-09-17T11:04:10.022Z,1010.9
2018-09-17T11:05:12.143Z,1010.9
2018-09-17T11:06:14.662Z,1010.9
2018-09-17T11:07:16.779Z,1010.9
2018-09-17T11:08:19.194Z,1010.9
2018-09-17T11:09:21.304Z,1010.8
2018-09-17T11:10:23.415Z,1010.9
2018-09-17T11:11:25.538Z,1010.9
2018-09-17T11:12:27.952Z,1010.8
2018-09-17T11:13:30.051Z,1010.8
2018-09-17T11:14:32.180Z,1010.8
2018-09-17T11:15:34.291Z,1010.9
2018-09-17T11:16:36.419Z,1010.8
2018-09-17T11:17:38.593Z,1010.8
2018-09-17T11:18:41.108Z,1010.8
2018-09-17T11:19:43.539Z,1010.7
2018-09-17T11:20:45.643Z,1010.8
2018-09-17T11:21:47.763Z,1010.7
2018-09-17T11:22:49.888Z,1010.7
2018-09-17T11:23:51.998Z,1010.8
2018-09-17T11:24:54.409Z,1010.7
2018-09-17T11:25:56.803Z,1010.7
2018-09-17T11:26:59.221Z,1010.7
2018-09-17T11:28:01.334Z,1010.7
2018-09-17T11:29:03.448Z,1010.7
2018-09-17T11:30:05.586Z,1010.7
2018-09-17T11:31:07.993Z,1010.7
2018-09-17T11:32:10.402Z,1010.7
2018-09-17T11:33:12.527Z,1010.7
2018-09-17T11:34:14.953Z,1010.6
2018-09-17T11:35:17.064Z,1010.6
2018-09-17T11:36:19.186Z,1010.6
2018-09-17T11:37:21.295Z,1010.6
2018-09-17T11:38:23.409Z,1010.7
2018-09-17T11:39:25.530Z,1010.7
2018-09-17T11:40:27.644Z,1010.7
2018-09-17T11:41:30.042Z,1010.7
2018-09-17T11:42:32.556Z,1010.7
2018-09-17T11:43:34.668Z,1010.6
2018-09-17T11:44:37.073Z,1010.7
2018-09-17T11:45:39.602Z,1010.6
2018-09-17T11:46:41.704Z,1010.7
2018-09-17T11:47:43.829Z,1010.6
2018-09-17T11:48:45.943Z,1010.6
2018-09-17T11:49:48.068Z,1010.6
2018-09-17T11:50:50.181Z,1010.6
2018-09-17T11:51:52.299Z,1010.6
2018-09-17T11:52:54.422Z,1010.5
2018-09-17T11:53:56.586Z,1010.5
2018-09-17T11:54:58.658Z,1010.6
2018-09-17T11:56:00.769Z,1010.5
2018-09-17T11:57:02.891Z,1010.5
2018-09-17T11:58:05.000Z,1010.5
2018-09-17T11:59:07.131Z,1010.6
2018-09-17T12:00:09.236Z,1010.5
2018-09-17T12:01:11.359Z,1010.6
2018-09-17T12:02:13.547Z,1010.5
2018-09-17T12:03:15.575Z,1010.5
2018-09-17T12:04:17.703Z,1010.5
2018-09-17T12:05:19.826Z,1010.4
2018-09-17T12:06:21.932Z,1010.5
2018-09-17T12:07:24.060Z,1010.4
2018-09-17T12:08:26.180Z,1010.4
2018-09-17T12:09:28.300Z,1010.4
2018-09-17T12:10:30.430Z,1010.3
2018-09-17T12:11:32.543Z,1010.4
2018-09-17T12:12:34.650Z,1010.4
2018-09-17T12:13:36.773Z,1010.3
2018-09-17T12:14:38.900Z,1010.3
2018-09-17T12:15:41.006Z,1010.4
2018-09-17T12:16:43.128Z,1010.3
2018-09-17T12:17:45.257Z,1010.3
2018-09-17T12:18:47.359Z,1010.4
2018-09-17T12:19:49.489Z,1010.4
2018-09-17T12:20:51.910Z,1010.3
2018-09-17T12:21:54.443Z,1010.3
2018-09-17T12:22:56.558Z,1010.3
2018-09-17T12:23:58.748Z,1010.3
2018-09-17T12:25:01.224Z,1010.4
2018-09-17T12:26:03.346Z,1010.3
2018-09-17T12:27:05.484Z,1010.3
2018-09-17T12:28:07.594Z,1010.3
2018-09-17T12:29:09.716Z,1010.2
2018-09-17T12:30:11.839Z,1010.2
2018-09-17T12:31:13.960Z,1010.3
2018-09-17T12:32:16.071Z,1010.2
2018-09-17T12:33:18.199Z,1010.2
2018-09-17T12:34:20.313Z,1010.2
2018-09-17T12:35:22.714Z,1010.2
2018-09-17T12:36:24.845Z,1010.2
2018-09-17T12:37:27.250Z,1010.2
2018-09-17T12:38:29.369Z,1010.2
2018-09-17T12:39:31.481Z,1010.2
2018-09-17T12:40:33.899Z,1010.1
2018-09-17T12:41:36.026Z,1010.2
2018-09-17T12:42:38.144Z,1010.2
2018-09-17T12:43:40.270Z,1010.1
2018-09-17T12:44:42.380Z,1010.1
2018-09-17T12:45:44.500Z,1010.1
2018-09-17T12:46:47.279Z,1010.1
2018-09-17T12:47:49.415Z,1010.1
2018-09-17T12:48:51.529Z,1010.1
2018-09-17T12:49:53.654Z,1010.2
2018-09-17T12:50:55.806Z,1010.2
2018-09-17T12:51:57.903Z,1010.2
2018-09-17T12:53:00.036Z,1010.2
2018-09-17T12:54:02.537Z,1010.2
2018-09-17T12:55:04.652Z,1010.2
2018-09-17T12:56:06.754Z,1010.1
2018-09-17T12:57:08.889Z,1010.2
2018-09-17T12:58:11.024Z,1010.1
2018-09-17T12:59:13.534Z,1010.1
2018-09-17T13:00:15.663Z,1010.2
2018-09-17T13:01:17.771Z,1010.2
2018-09-17T13:02:19.898Z,1010.2